Time;durP1;ratioP1;P1;durP2;ratioP2;P2;SDS_P1;SDS_P2;PMS_P1;PMS_P2;Temp;Humidity;BMP_temperature;BMP_pressure;BME280_temperature;BME280_humidity;BME280_pressure;Samples;Min_cycle;Max_cycle;Signal;HPM_P1;HPM_P2
2021/12/13 07:11:47;;;;;;;19.50;13.65;;;7.10;99.90;;;;;;5199039;23;20537;-84
2021/12/13 07:14:19;;;;;;;17.08;12.27;;;7.20;99.90;;;;;;4940752;29;20229;-83
2021/12/13 07:16:51;;;;;;;15.95;11.90;;;7.20;99.90;;;;;;4946510;29;20228;-82
2021/12/13 07:19:34;;;;;;;16.98;11.70;;;7.20;99.90;;;;;;4929647;29;20229;-85
2021/12/13 07:22:03;;;;;;;18.20;12.63;;;7.30;99.90;;;;;;4935394;29;20252;-83
2021/12/13 07:24:34;;;;;;;19.67;12.88;;;7.30;99.90;;;;;;4947049;29;20228;-86
2021/12/13 07:27:07;;;;;;;17.05;14.10;;;7.30;99.90;;;;;;4946149;29;20201;-86
2021/12/13 07:29:40;;;;;;;13.27;10.93;;;7.30;99.90;;;;;;4952724;29;20216;-87
2021/12/13 07:32:12;;;;;;;14.07;12.60;;;7.40;99.90;;;;;;4952681;29;20213;-86
2021/12/13 07:35:00;;;;;;;14.38;11.20;;;7.40;99.90;;;;;;4966922;29;20228;-84
2021/12/13 07:37:49;;;;;;;14.85;11.25;;;7.40;99.90;;;;;;4958563;29;20430;-85
2021/12/13 07:40:31;;;;;;;15.73;12.85;;;7.40;99.90;;;;;;4963759;28;20229;-85
2021/12/13 07:43:08;;;;;;;16.20;12.13;;;7.40;99.90;;;;;;4970008;29;20245;-84
2021/12/13 07:45:41;;;;;;;16.08;12.77;;;7.40;99.90;;;;;;4968880;29;20204;-86
2021/12/13 07:48:31;;;;;;;17.48;13.23;;;7.30;99.90;;;;;;4950088;29;20206;-86
2021/12/13 07:51:11;;;;;;;17.27;13.85;;;7.30;99.90;;;;;;4924631;29;20589;-86
2021/12/13 07:54:09;;;;;;;17.35;14.55;;;7.40;99.90;;;;;;4952929;29;20213;-86
2021/12/13 07:56:58;;;;;;;15.15;11.30;;;7.40;99.90;;;;;;4958418;29;20193;-87
2021/12/13 07:59:30;;;;;;;14.68;12.95;;;7.40;99.90;;;;;;4931820;29;20197;-82
2021/12/13 08:02:01;;;;;;;18.58;13.55;;;7.50;99.90;;;;;;4943724;28;20277;-81
2021/12/13 08:04:30;;;;;;;17.58;15.10;;;7.60;99.90;;;;;;4963715;29;20233;-81
2021/12/13 08:06:59;;;;;;;14.00;12.55;;;7.70;99.90;;;;;;4948345;29;20210;-80
2021/12/13 08:09:30;;;;;;;14.32;12.25;;;7.70;99.90;;;;;;4947662;29;20224;-85
2021/12/13 08:12:01;;;;;;;15.20;12.48;;;7.80;99.90;;;;;;4944469;28;20229;-82
2021/12/13 08:14:34;;;;;;;14.70;12.20;;;7.80;99.90;;;;;;4939084;29;20214;-85
2021/12/13 08:17:11;;;;;;;17.73;13.35;;;7.90;99.90;;;;;;4958167;29;20212;-85
2021/12/13 08:19:38;;;;;;;21.10;14.30;;;7.90;99.90;;;;;;4956898;29;20201;-82
2021/12/13 08:22:12;;;;;;;18.50;13.75;;;8.00;99.90;;;;;;4949749;29;20228;-82
2021/12/13 08:24:42;;;;;;;15.98;13.05;;;8.00;99.90;;;;;;4957382;29;20210;-82
2021/12/13 08:27:16;;;;;;;17.17;14.23;;;8.10;99.90;;;;;;4932099;29;20226;-83
2021/12/13 08:29:45;;;;;;;16.83;13.65;;;8.10;99.90;;;;;;4939769;29;20242;-82
2021/12/13 08:32:15;;;;;;;17.75;12.60;;;8.10;99.90;;;;;;4953233;29;20221;-82
2021/12/13 08:34:46;;;;;;;24.13;14.85;;;8.10;99.90;;;;;;4965628;29;20209;-85
2021/12/13 08:37:17;;;;;;;18.00;12.38;;;8.20;99.90;;;;;;4956737;29;20551;-82
2021/12/13 08:39:46;;;;;;;14.75;12.13;;;8.20;99.90;;;;;;4942729;29;20639;-82
2021/12/13 08:42:17;;;;;;;18.52;12.10;;;8.20;99.90;;;;;;4949181;29;20229;-84
2021/12/13 08:44:52;;;;;;;18.33;13.10;;;8.20;99.90;;;;;;4965052;29;20217;-83
2021/12/13 08:47:24;;;;;;;22.02;13.55;;;8.10;99.90;;;;;;4957068;29;20551;-84
2021/12/13 08:49:54;;;;;;;21.02;14.35;;;8.10;99.90;;;;;;4942892;29;20285;-84
2021/12/13 08:52:24;;;;;;;16.00;12.00;;;8.10;99.90;;;;;;4930509;29;20599;-83
2021/12/13 08:54:57;;;;;;;15.25;12.55;;;8.00;99.90;;;;;;4944048;29;20217;-83
2021/12/13 08:57:40;;;;;;;18.02;12.45;;;8.00;99.90;;;;;;4966703;29;20209;-83
2021/12/13 09:00:27;;;;;;;14.30;12.77;;;7.80;99.90;;;;;;4959763;28;20217;-83
2021/12/13 09:03:00;;;;;;;15.23;12.70;;;7.80;99.90;;;;;;4959358;29;20252;-83
2021/12/13 09:05:31;;;;;;;15.73;12.07;;;7.80;99.90;;;;;;4957793;29;20225;-82
2021/12/13 09:08:01;;;;;;;16.80;13.10;;;7.80;99.90;;;;;;4945230;29;20209;-83
2021/12/13 09:10:43;;;;;;;20.38;11.48;;;7.90;99.90;;;;;;4951448;29;20224;-83
2021/12/13 09:13:11;;;;;;;14.80;11.57;;;7.90;99.90;;;;;;4964439;29;20213;-83
2021/12/13 09:15:41;;;;;;;15.32;12.32;;;7.90;99.90;;;;;;4964012;29;20196;-83
2021/12/13 09:18:09;;;;;;;21.83;13.30;;;7.90;99.90;;;;;;4949575;29;20237;-83
2021/12/13 09:20:43;;;;;;;14.23;10.93;;;7.90;99.90;;;;;;4943169;29;20228;-85
2021/12/13 09:23:13;;;;;;;20.85;11.05;;;7.90;99.90;;;;;;4950472;29;20225;-83
2021/12/13 09:25:45;;;;;;;13.55;12.13;;;7.90;99.90;;;;;;4930944;29;20217;-83
2021/12/13 09:28:16;;;;;;;14.77;10.63;;;8.00;99.90;;;;;;4932189;29;20214;-81
2021/12/13 09:30:47;;;;;;;15.32;11.82;;;8.00;99.90;;;;;;4927416;29;20252;-83
2021/12/13 09:33:18;;;;;;;12.35;10.38;;;8.00;99.90;;;;;;4948811;29;20221;-83
2021/12/13 09:35:50;;;;;;;16.30;11.73;;;8.10;99.90;;;;;;4941324;29;20622;-83
2021/12/13 09:38:29;;;;;;;15.45;12.55;;;8.10;99.90;;;;;;4926275;29;20206;-82
2021/12/13 09:41:00;;;;;;;12.80;10.82;;;8.20;99.90;;;;;;4928838;29;20226;-83
2021/12/13 09:43:43;;;;;;;15.35;10.60;;;8.20;99.90;;;;;;4942383;29;20697;-85
2021/12/13 09:46:15;;;;;;;13.18;10.50;;;8.30;99.90;;;;;;4942240;29;20205;-84
2021/12/13 09:48:45;;;;;;;11.82;8.32;;;8.30;99.90;;;;;;4941167;29;20214;-83
2021/12/13 09:51:18;;;;;;;12.30;9.45;;;8.40;99.90;;;;;;4935892;29;20228;-82
2021/12/13 09:53:48;;;;;;;10.25;8.27;;;8.40;99.90;;;;;;4933049;29;20202;-80
2021/12/13 09:56:17;;;;;;;13.15;11.07;;;8.50;99.90;;;;;;4929561;29;20207;-80
2021/12/13 09:58:49;;;;;;;12.95;9.18;;;8.60;99.90;;;;;;4940529;29;20213;-81
2021/12/13 10:11:43;;;;;;;15.20;10.63;;;9.10;99.90;;;;;;5156058;23;20251;-83
2021/12/13 10:14:12;;;;;;;10.65;8.88;;;9.30;99.90;;;;;;4904332;29;20207;-83
2021/12/13 10:16:45;;;;;;;12.20;9.32;;;9.40;99.90;;;;;;4909984;29;20215;-83
2021/12/13 10:19:19;;;;;;;13.27;9.30;;;9.40;99.90;;;;;;4906038;29;20701;-83
2021/12/13 10:21:48;;;;;;;12.35;11.10;;;9.50;99.90;;;;;;4919884;29;20232;-83
2021/12/13 10:24:18;;;;;;;15.52;11.48;;;9.60;99.90;;;;;;4923412;29;20245;-83
2021/12/13 10:26:48;;;;;;;14.15;10.68;;;9.60;99.90;;;;;;4923768;29;20210;-82
2021/12/13 10:29:17;;;;;;;11.88;10.00;;;9.60;99.90;;;;;;4925719;29;20302;-84
2021/12/13 10:31:48;;;;;;;11.30;8.85;;;9.60;99.90;;;;;;4923205;29;20308;-84
2021/12/13 10:34:19;;;;;;;13.55;10.70;;;9.60;99.90;;;;;;4929324;29;20206;-83
2021/12/13 10:36:49;;;;;;;9.25;7.93;;;9.70;99.90;;;;;;4930150;29;20217;-82
2021/12/13 10:39:19;;;;;;;9.88;8.88;;;9.70;99.90;;;;;;4933686;29;20202;-83
2021/12/13 10:41:50;;;;;;;9.48;6.65;;;9.80;99.90;;;;;;4933540;29;20774;-83
2021/12/13 10:47:52;;;;;;;9.13;7.25;;;9.80;99.90;;;;;;4882878;29;20263;-83
2021/12/13 10:56:31;;;;;;;7.90;6.38;;;9.90;99.90;;;;;;4882660;29;20239;-83
2021/12/13 10:59:03;;;;;;;7.22;6.53;;;10.10;99.90;;;;;;4915865;29;20224;-82
2021/12/13 11:01:33;;;;;;;7.80;7.15;;;10.00;99.90;;;;;;4949762;28;20235;-85
2021/12/13 11:04:06;;;;;;;8.05;6.22;;;10.00;99.90;;;;;;4986843;28;20253;-81
2021/12/13 11:06:35;;;;;;;7.68;5.68;;;10.10;99.90;;;;;;4988018;28;20210;-84
2021/12/13 11:09:02;;;;;;;6.38;5.70;;;10.10;99.90;;;;;;4987618;28;20209;-84
2021/12/13 11:11:33;;;;;;;10.23;5.70;;;10.20;99.90;;;;;;4988863;28;20258;-84
2021/12/13 11:14:04;;;;;;;5.60;5.00;;;10.20;99.90;;;;;;4988636;28;20200;-84
2021/12/13 11:16:35;;;;;;;4.75;4.35;;;10.20;99.90;;;;;;4982897;28;20200;-84
2021/12/13 11:19:03;;;;;;;3.75;3.40;;;10.30;99.90;;;;;;4980181;28;20212;-83
2021/12/13 11:21:33;;;;;;;4.45;4.05;;;10.30;99.90;;;;;;4984717;28;20230;-84
2021/12/13 11:24:00;;;;;;;7.95;4.40;;;10.20;99.90;;;;;;4987785;28;20717;-84
2021/12/13 11:26:34;;;;;;;5.80;5.30;;;10.20;99.90;;;;;;4988254;28;20211;-83
2021/12/13 11:29:04;;;;;;;5.13;3.38;;;10.20;99.90;;;;;;4988279;28;20211;-83
2021/12/13 11:32:05;;;;;;;2.70;2.45;;;10.30;99.90;;;;;;4990434;28;20230;-82
2021/12/13 11:34:49;;;;;;;5.13;3.33;;;10.50;99.90;;;;;;4960432;28;20237;-81
2021/12/13 11:37:57;;;;;;;4.05;3.75;;;10.80;99.90;;;;;;4992737;28;20213;-82
2021/12/13 11:40:48;;;;;;;3.70;3.50;;;11.00;99.90;;;;;;4992440;28;20228;-81
2021/12/13 11:43:28;;;;;;;11.13;4.80;;;11.20;99.90;;;;;;4992449;28;20500;-81
2021/12/13 11:46:34;;;;;;;5.00;4.50;;;11.40;99.90;;;;;;4988492;28;20233;-82
2021/12/13 11:49:23;;;;;;;7.00;6.30;;;11.50;99.90;;;;;;4988412;28;20466;-83
2021/12/13 11:52:13;;;;;;;5.63;5.03;;;11.50;99.90;;;;;;4987844;28;20466;-84
2021/12/13 11:55:04;;;;;;;4.90;4.40;;;11.50;99.90;;;;;;4988527;28;20444;-84
2021/12/13 11:57:57;;;;;;;4.77;4.27;;;11.60;99.90;;;;;;4988538;28;20692;-84
2021/12/13 12:00:36;;;;;;;3.87;3.60;;;11.70;99.90;;;;;;4988352;28;20482;-82
2021/12/13 12:03:54;;;;;;;4.57;4.13;;;11.70;99.90;;;;;;4987756;28;20497;-84
2021/12/13 12:07:05;;;;;;;5.30;4.30;;;11.80;99.90;;;;;;4987070;28;20465;-83
2021/12/13 12:10:11;;;;;;;6.80;4.68;;;11.90;99.90;;;;;;4982728;28;20454;-83
2021/12/13 12:13:04;;;;;;;7.87;4.10;;;11.80;99.90;;;;;;4983140;28;20222;-84
2021/12/13 12:15:32;;;;;;;4.20;3.90;;;11.70;99.90;;;;;;4982985;28;20455;-83
2021/12/13 12:18:02;;;;;;;4.93;3.90;;;11.60;99.90;;;;;;4982798;28;20454;-83
2021/12/13 12:20:32;;;;;;;5.17;4.67;;;11.60;99.90;;;;;;4982862;28;20470;-83
2021/12/13 12:23:03;;;;;;;4.77;4.27;;;11.60;99.90;;;;;;4983030;28;20988;-81
2021/12/13 12:25:32;;;;;;;4.70;4.30;;;11.70;99.90;;;;;;4983069;28;20449;-84
2021/12/13 12:28:03;;;;;;;11.23;5.43;;;11.70;99.90;;;;;;4981935;28;20460;-84
2021/12/13 12:30:34;;;;;;;4.50;4.10;;;11.80;99.90;;;;;;4982692;28;20490;-82
2021/12/13 12:33:07;;;;;;;5.03;4.63;;;11.80;99.90;;;;;;4982590;28;20452;-84
2021/12/13 12:35:41;;;;;;;6.57;5.20;;;11.80;99.90;;;;;;4982061;28;20536;-81
2021/12/13 12:38:26;;;;;;;6.60;5.93;;;11.80;99.90;;;;;;4979891;28;20454;-84
2021/12/13 12:41:29;;;;;;;5.93;4.90;;;11.70;99.90;;;;;;4979489;28;20484;-84
2021/12/13 12:43:56;;;;;;;5.73;5.40;;;11.60;99.90;;;;;;4984523;28;20499;-85
2021/12/13 12:46:23;;;;;;;5.80;5.22;;;11.50;99.90;;;;;;4985887;28;20478;-83
2021/12/13 12:48:52;;;;;;;5.23;4.73;;;11.50;99.90;;;;;;4986138;28;20221;-85
2021/12/13 12:51:23;;;;;;;5.20;4.70;;;11.40;99.90;;;;;;4983056;28;20986;-84
2021/12/13 12:53:52;;;;;;;7.65;6.05;;;11.30;99.90;;;;;;4980044;28;20207;-84
2021/12/13 12:56:23;;;;;;;5.30;4.90;;;11.10;99.90;;;;;;4979730;28;20245;-84
2021/12/13 12:58:57;;;;;;;6.78;6.03;;;11.00;99.90;;;;;;4979317;28;20218;-84
2021/12/13 13:01:28;;;;;;;9.23;8.00;;;10.90;99.90;;;;;;4979630;28;20240;-83
2021/12/13 13:04:11;;;;;;;7.50;6.80;;;10.80;99.90;;;;;;4978975;28;20234;-84
2021/12/13 13:06:56;;;;;;;8.85;8.02;;;10.80;99.90;;;;;;4979101;28;20210;-83
2021/12/13 13:09:33;;;;;;;9.15;8.25;;;10.70;99.90;;;;;;4981279;28;20213;-84
2021/12/13 13:11:59;;;;;;;9.63;8.70;;;10.80;99.90;;;;;;4981159;28;20272;-85
2021/12/13 13:14:30;;;;;;;11.02;9.73;;;10.80;99.90;;;;;;4981657;28;20210;-81
2021/12/13 13:16:59;;;;;;;9.60;8.65;;;10.90;99.90;;;;;;4985555;28;20206;-83
2021/12/13 13:19:30;;;;;;;9.48;8.57;;;10.90;99.90;;;;;;4985704;28;20214;-83
2021/12/13 13:22:02;;;;;;;11.27;8.95;;;10.80;99.90;;;;;;4985739;28;20233;-83
2021/12/13 13:24:29;;;;;;;9.93;8.93;;;10.80;99.90;;;;;;4986363;28;20229;-83
2021/12/13 13:26:56;;;;;;;9.32;8.52;;;10.80;99.90;;;;;;4986376;28;20216;-82
2021/12/13 13:29:23;;;;;;;7.97;7.18;;;10.80;99.90;;;;;;4985371;28;20210;-83
2021/12/13 13:31:53;;;;;;;8.40;7.22;;;10.80;99.90;;;;;;4982383;28;20352;-82
2021/12/13 13:34:23;;;;;;;9.90;8.80;;;10.80;99.90;;;;;;4981787;28;20248;-83
2021/12/13 13:36:53;;;;;;;8.15;7.22;;;10.90;99.90;;;;;;4981049;28;20213;-83
2021/12/13 13:39:26;;;;;;;7.83;7.13;;;11.00;99.90;;;;;;4981390;28;20229;-83
2021/12/13 13:41:56;;;;;;;9.60;8.73;;;11.00;99.90;;;;;;4984337;28;20477;-82
2021/12/13 13:44:26;;;;;;;7.95;7.25;;;11.00;99.90;;;;;;4989889;28;20490;-82
2021/12/13 13:47:07;;;;;;;9.45;8.65;;;11.00;99.90;;;;;;4992356;28;20213;-82
2021/12/13 13:49:34;;;;;;;8.75;7.05;;;11.00;99.90;;;;;;4989649;28;20286;-82
2021/12/13 13:52:16;;;;;;;9.55;6.93;;;10.90;99.90;;;;;;4988570;28;20233;-82
2021/12/13 13:54:45;;;;;;;9.70;6.50;;;10.90;99.90;;;;;;4989693;28;20189;-82
2021/12/13 13:57:19;;;;;;;7.25;6.15;;;10.80;99.90;;;;;;4989418;28;20587;-82
2021/12/13 13:59:48;;;;;;;7.28;6.68;;;10.70;99.90;;;;;;4987072;28;20219;-82
2021/12/13 14:02:19;;;;;;;8.60;7.43;;;10.60;99.90;;;;;;4986149;28;20587;-82
2021/12/13 14:04:47;;;;;;;8.20;7.40;;;10.60;99.90;;;;;;4989203;28;20248;-82
2021/12/13 14:07:18;;;;;;;7.63;6.93;;;10.50;99.90;;;;;;4989541;28;20266;-82
2021/12/13 14:09:52;;;;;;;8.70;7.90;;;10.60;99.90;;;;;;4989194;28;20205;-82
2021/12/13 14:12:31;;;;;;;8.13;7.35;;;10.50;99.90;;;;;;4988708;28;20718;-82
2021/12/13 14:15:03;;;;;;;10.73;8.85;;;10.40;99.90;;;;;;4988000;28;20248;-82
2021/12/13 14:17:37;;;;;;;7.82;6.85;;;10.40;99.90;;;;;;4988519;28;20301;-82
2021/12/13 14:20:22;;;;;;;8.77;7.55;;;10.30;99.90;;;;;;4990810;28;20240;-79
2021/12/13 14:22:50;;;;;;;7.70;6.30;;;10.20;99.90;;;;;;4989345;28;20221;-82
2021/12/13 14:25:32;;;;;;;8.65;7.22;;;10.20;99.90;;;;;;4988988;28;20244;-83
2021/12/13 14:28:01;;;;;;;9.32;7.25;;;10.10;99.90;;;;;;4989330;28;20216;-83
2021/12/13 14:30:30;;;;;;;10.27;9.27;;;10.00;99.90;;;;;;4993691;28;20252;-83
2021/12/13 14:32:58;;;;;;;8.13;7.43;;;10.00;99.90;;;;;;4993636;28;20216;-82
2021/12/13 14:35:28;;;;;;;8.93;8.02;;;9.90;99.90;;;;;;4990610;28;20227;-80
2021/12/13 14:38:03;;;;;;;10.05;9.05;;;9.90;99.90;;;;;;4990702;28;20212;-82
2021/12/13 14:40:44;;;;;;;13.07;10.57;;;9.80;99.90;;;;;;4992711;28;20235;-82
2021/12/13 14:43:18;;;;;;;14.05;11.30;;;9.70;99.90;;;;;;4985097;28;20208;-82
2021/12/13 14:45:45;;;;;;;11.65;10.55;;;9.70;99.90;;;;;;4993889;28;20578;-82
2021/12/13 14:48:14;;;;;;;12.68;11.57;;;9.60;99.90;;;;;;4993711;28;20209;-82
2021/12/13 14:50:47;;;;;;;12.48;11.15;;;9.60;99.90;;;;;;4988867;28;20233;-83
2021/12/13 14:53:22;;;;;;;10.50;9.50;;;9.60;99.90;;;;;;4992181;28;20213;-84
2021/12/13 14:55:50;;;;;;;6.43;5.82;;;9.60;99.90;;;;;;4987864;28;20204;-81
2021/12/13 14:58:21;;;;;;;7.43;5.70;;;9.60;99.90;;;;;;4986065;28;20216;-81
2021/12/13 15:00:51;;;;;;;5.63;5.13;;;9.60;99.90;;;;;;4987094;28;20296;-81
2021/12/13 15:03:21;;;;;;;4.15;3.85;;;9.60;99.90;;;;;;4987765;28;20212;-83
2021/12/13 15:05:56;;;;;;;6.40;5.80;;;9.60;99.90;;;;;;4988755;28;20219;-82
2021/12/13 15:08:25;;;;;;;7.43;6.68;;;9.50;99.90;;;;;;4987590;28;20298;-82
2021/12/13 15:10:56;;;;;;;7.10;5.45;;;9.50;99.90;;;;;;4984446;28;20228;-81
2021/12/13 15:13:24;;;;;;;6.30;5.75;;;9.50;99.90;;;;;;4983630;28;20213;-82
2021/12/13 15:15:54;;;;;;;6.10;5.50;;;9.50;99.90;;;;;;4987311;28;20204;-81
2021/12/13 15:18:28;;;;;;;5.82;5.32;;;9.50;99.90;;;;;;4989236;28;20212;-81
2021/12/13 15:21:06;;;;;;;5.03;4.55;;;9.40;99.90;;;;;;4987566;28;20239;-81
2021/12/13 15:23:35;;;;;;;5.97;5.00;;;9.40;99.90;;;;;;4986730;28;20216;-81
2021/12/13 15:26:07;;;;;;;7.15;6.55;;;9.30;99.90;;;;;;4985340;28;20349;-81
2021/12/13 15:28:37;;;;;;;6.38;5.78;;;9.40;99.90;;;;;;4984953;28;20220;-81
2021/12/13 15:31:10;;;;;;;9.32;6.22;;;9.40;99.90;;;;;;4985605;28;20231;-82
2021/12/13 15:33:39;;;;;;;7.60;6.95;;;9.40;99.90;;;;;;4991640;28;20216;-83
2021/12/13 15:36:10;;;;;;;6.15;5.60;;;9.30;99.90;;;;;;4991085;28;20564;-84
2021/12/13 15:38:38;;;;;;;7.30;6.70;;;9.30;99.90;;;;;;4991338;28;20208;-83
2021/12/13 15:41:08;;;;;;;7.20;6.60;;;9.30;99.90;;;;;;4991237;28;20242;-83
2021/12/13 15:43:37;;;;;;;7.05;6.35;;;9.20;99.90;;;;;;4991195;28;20279;-84
2021/12/13 15:46:10;;;;;;;7.40;6.80;;;9.10;99.90;;;;;;4991185;28;20208;-82
2021/12/13 15:51:28;;;;;;;8.32;7.55;;;8.90;99.90;;;;;;4986380;28;20223;-83
2021/12/13 15:53:57;;;;;;;7.22;6.60;;;8.90;99.90;;;;;;4986381;28;20200;-83
2021/12/13 15:56:29;;;;;;;8.63;6.93;;;8.90;99.90;;;;;;4983752;28;20209;-83
2021/12/13 15:58:59;;;;;;;5.80;5.22;;;8.90;99.90;;;;;;4982418;28;20216;-83
2021/12/13 16:01:29;;;;;;;5.57;5.18;;;9.00;99.90;;;;;;4984741;28;20228;-83
2021/12/13 16:03:59;;;;;;;6.43;5.78;;;9.00;99.90;;;;;;4988726;28;20252;-81
2021/12/13 16:06:29;;;;;;;6.35;5.85;;;9.10;99.90;;;;;;4992770;28;20201;-82
2021/12/13 16:09:02;;;;;;;7.65;6.88;;;9.10;99.90;;;;;;4989247;28;20205;-82
2021/12/13 16:11:42;;;;;;;7.97;7.28;;;9.10;99.90;;;;;;4987670;28;20228;-82
2021/12/13 16:14:30;;;;;;;8.60;7.32;;;9.10;99.90;;;;;;4992959;28;20206;-82
2021/12/13 16:17:16;;;;;;;7.38;6.68;;;9.10;99.90;;;;;;4990686;28;20213;-82
2021/12/13 16:19:49;;;;;;;6.53;6.00;;;9.10;99.90;;;;;;4986545;28;20204;-83
2021/12/13 16:22:45;;;;;;;9.18;7.53;;;9.10;99.90;;;;;;4986890;28;20239;-83
2021/12/13 16:25:20;;;;;;;8.77;8.05;;;9.10;99.90;;;;;;4987580;28;20245;-80
2021/12/13 16:27:51;;;;;;;7.00;6.30;;;9.10;99.90;;;;;;4994857;28;20211;-82
2021/12/13 16:30:22;;;;;;;8.68;7.88;;;9.00;99.90;;;;;;4994151;28;20236;-79
2021/12/13 16:32:50;;;;;;;10.30;8.80;;;8.90;99.90;;;;;;4995217;28;20210;-80
2021/12/13 16:35:18;;;;;;;8.10;7.25;;;8.80;99.90;;;;;;4994353;28;20204;-80
2021/12/13 16:37:49;;;;;;;8.80;8.00;;;8.80;99.90;;;;;;4989914;28;20219;-83
2021/12/13 16:40:20;;;;;;;10.85;9.25;;;8.80;99.90;;;;;;4984888;28;20215;-80
2021/12/13 16:42:54;;;;;;;9.88;8.40;;;8.90;99.90;;;;;;4987759;28;20201;-82
2021/12/13 16:45:21;;;;;;;8.90;8.00;;;8.80;99.90;;;;;;4983521;28;20252;-83
2021/12/13 16:47:48;;;;;;;9.93;8.95;;;8.80;99.90;;;;;;4979594;28;20556;-83
2021/12/13 16:50:15;;;;;;;10.50;9.43;;;8.80;99.90;;;;;;4979052;28;20204;-82
2021/12/13 16:52:41;;;;;;;10.40;9.35;;;8.90;99.90;;;;;;4980882;28;20204;-84
2021/12/13 16:55:12;;;;;;;10.18;8.52;;;8.90;99.90;;;;;;4980469;28;20205;-85
2021/12/13 16:57:42;;;;;;;9.65;8.65;;;9.00;99.90;;;;;;4979829;28;20208;-85
2021/12/13 17:00:14;;;;;;;9.70;8.35;;;9.00;99.90;;;;;;4977100;28;20625;-83
2021/12/13 17:02:43;;;;;;;11.50;9.95;;;8.90;99.90;;;;;;4979545;28;20739;-83
2021/12/13 17:05:15;;;;;;;10.40;9.43;;;9.00;99.90;;;;;;4978185;28;20224;-84
2021/12/13 17:07:47;;;;;;;9.80;8.75;;;9.00;99.90;;;;;;4979459;28;20208;-85
2021/12/13 17:10:18;;;;;;;10.07;8.82;;;9.00;99.90;;;;;;4979283;28;20219;-85
2021/12/13 17:12:54;;;;;;;9.90;8.93;;;9.10;99.90;;;;;;4980430;28;20216;-84
2021/12/13 17:15:33;;;;;;;10.68;9.57;;;9.10;99.90;;;;;;4981025;28;20205;-83
2021/12/13 17:18:18;;;;;;;12.38;11.07;;;9.10;99.90;;;;;;4963265;28;20216;-84
2021/12/13 17:21:00;;;;;;;11.88;10.50;;;9.20;99.90;;;;;;4975784;28;20228;-82
2021/12/13 17:23:31;;;;;;;12.38;11.13;;;9.30;99.90;;;;;;4978888;28;20616;-81
2021/12/13 17:25:58;;;;;;;15.60;12.68;;;9.20;99.90;;;;;;4979204;28;20580;-83
2021/12/13 17:28:37;;;;;;;13.05;11.25;;;9.20;99.90;;;;;;4978517;28;20215;-84
2021/12/13 17:31:05;;;;;;;11.43;10.30;;;9.20;99.90;;;;;;4978490;28;20229;-84
2021/12/13 17:33:35;;;;;;;13.60;11.95;;;9.20;99.90;;;;;;4978523;28;20311;-84
2021/12/13 17:36:02;;;;;;;13.07;11.77;;;9.20;99.90;;;;;;4978964;28;20208;-83
2021/12/13 17:38:29;;;;;;;13.15;11.77;;;9.10;99.90;;;;;;4977008;28;20205;-84
2021/12/13 17:40:58;;;;;;;12.18;10.95;;;9.10;99.90;;;;;;4975014;28;20601;-83
2021/12/13 17:43:32;;;;;;;16.45;14.65;;;9.10;99.90;;;;;;4976464;28;20200;-83
2021/12/13 17:46:02;;;;;;;15.20;11.50;;;9.10;99.90;;;;;;4975356;28;20228;-83
2021/12/13 18:21:40;;;;;;;16.70;13.27;;;8.60;99.90;;;;;;4875577;29;20824;-86
2021/12/13 18:24:51;;;;;;;18.40;15.85;;;8.50;99.90;;;;;;4886693;29;20214;-86
2021/12/13 18:27:50;;;;;;;;;;;;;;;;;;;;;
2021/12/13 18:31:00;;;;;;;19.63;14.95;;;8.40;99.90;;;;;;4922814;29;20209;-86
2021/12/13 18:33:54;;;;;;;19.42;14.45;;;8.40;99.90;;;;;;4918130;29;20220;-86
2021/12/13 20:54:33;;;;;;;15.25;13.70;;;7.50;99.90;;;;;;6162807;23;20251;-85
2021/12/13 20:57:04;;;;;;;16.58;13.60;;;7.60;99.90;;;;;;6162654;23;20190;-86
2021/12/13 20:59:37;;;;;;;14.35;12.75;;;7.50;99.90;;;;;;6163692;23;20199;-85
2021/12/13 21:02:09;;;;;;;16.02;14.32;;;7.50;99.90;;;;;;6163207;23;20199;-86
2021/12/13 21:04:40;;;;;;;16.38;12.73;;;7.40;99.90;;;;;;6162621;23;20624;-85
2021/12/13 21:07:11;;;;;;;21.15;15.85;;;7.30;99.90;;;;;;6162681;23;20250;-86
2021/12/13 21:09:44;;;;;;;16.88;12.43;;;7.30;99.90;;;;;;6163679;23;20187;-85
2021/12/13 21:12:14;;;;;;;17.90;14.43;;;7.20;99.90;;;;;;6161621;23;20482;-85
2021/12/13 21:14:44;;;;;;;21.95;15.52;;;7.30;99.90;;;;;;6162551;23;20178;-86
2021/12/13 21:17:19;;;;;;;19.73;14.93;;;7.30;99.90;;;;;;6162294;23;20168;-85
2021/12/13 21:19:52;;;;;;;18.10;15.52;;;7.30;99.90;;;;;;6163831;23;20211;-86
2021/12/13 21:22:24;;;;;;;22.55;15.30;;;7.30;99.90;;;;;;6163892;23;20266;-86
2021/12/13 21:24:56;;;;;;;20.30;16.02;;;7.30;99.90;;;;;;6163473;23;20170;-84
2021/12/13 21:27:27;;;;;;;16.35;13.52;;;7.20;99.90;;;;;;6164409;23;20168;-86
2021/12/13 21:29:59;;;;;;;18.83;14.32;;;7.20;99.90;;;;;;6166357;23;20174;-84
2021/12/13 21:32:28;;;;;;;22.05;14.10;;;7.20;99.90;;;;;;6164261;23;20199;-84
2021/12/13 21:35:02;;;;;;;19.63;12.80;;;7.20;99.90;;;;;;6165051;23;20175;-84
2021/12/13 21:40:27;;;;;;;16.98;15.13;;;7.20;99.90;;;;;;6165121;23;20227;-83
2021/12/13 21:42:54;;;;;;;16.33;14.55;;;7.20;99.90;;;;;;6163141;23;20246;-85
2021/12/13 21:45:25;;;;;;;20.48;15.30;;;7.20;99.90;;;;;;6164062;23;20189;-83
2021/12/13 21:47:57;;;;;;;23.20;15.23;;;7.20;99.90;;;;;;6162293;23;20186;-84
2021/12/13 21:50:28;;;;;;;22.00;15.35;;;7.20;99.90;;;;;;6163203;23;20199;-84
2021/12/13 21:52:59;;;;;;;19.35;14.55;;;7.20;99.90;;;;;;6163238;23;20207;-84
2021/12/13 21:55:32;;;;;;;19.63;16.67;;;7.10;99.90;;;;;;6163840;23;20187;-83
2021/12/13 21:58:05;;;;;;;16.90;13.82;;;7.10;99.90;;;;;;6164798;23;20183;-83
2021/12/13 22:00:36;;;;;;;19.65;16.75;;;7.10;99.90;;;;;;6164559;23;20203;-83
2021/12/13 22:03:05;;;;;;;16.92;13.98;;;7.10;99.90;;;;;;6165564;23;20167;-83
2021/12/13 22:05:36;;;;;;;22.60;18.42;;;7.00;99.90;;;;;;6163780;23;20204;-82
2021/12/13 22:08:10;;;;;;;21.73;16.63;;;7.00;99.90;;;;;;6163944;23;20174;-84
2021/12/13 22:10:42;;;;;;;20.15;17.23;;;6.90;99.90;;;;;;6164093;23;20254;-83
2021/12/13 22:13:12;;;;;;;30.08;18.30;;;6.90;99.90;;;;;;6164051;23;20182;-83
2021/12/13 22:15:44;;;;;;;22.20;19.13;;;6.90;99.90;;;;;;6164276;23;20741;-83
2021/12/13 22:18:19;;;;;;;25.95;17.95;;;6.80;99.90;;;;;;6164701;23;20194;-83
2021/12/13 22:20:48;;;;;;;24.80;19.08;;;6.80;99.90;;;;;;6163956;23;20209;-83
2021/12/13 22:23:19;;;;;;;29.30;19.35;;;6.80;99.90;;;;;;6166064;23;20189;-85
2021/12/13 22:25:52;;;;;;;20.85;16.67;;;6.70;99.90;;;;;;6167087;23;20164;-85
2021/12/13 22:28:21;;;;;;;26.40;17.10;;;6.80;99.90;;;;;;6168313;23;20702;-84
2021/12/13 22:30:51;;;;;;;25.95;17.40;;;6.80;99.90;;;;;;6165489;23;20202;-85
2021/12/13 22:33:19;;;;;;;20.88;17.52;;;6.80;99.90;;;;;;6168635;23;20726;-85
2021/12/13 22:35:50;;;;;;;28.45;16.75;;;6.80;99.90;;;;;;6167440;23;20262;-85
2021/12/13 22:38:19;;;;;;;25.35;17.85;;;6.80;99.90;;;;;;6167743;23;20210;-86
2021/12/13 22:40:50;;;;;;;20.40;16.33;;;6.70;99.90;;;;;;6166138;23;20282;-85
2021/12/13 22:43:19;;;;;;;25.50;17.48;;;6.70;99.90;;;;;;6165121;23;20175;-85
2021/12/13 22:45:49;;;;;;;25.42;15.30;;;6.70;99.90;;;;;;6166753;23;20179;-85
2021/12/13 22:48:20;;;;;;;26.02;16.77;;;6.70;99.90;;;;;;6165934;23;20202;-84
2021/12/13 22:50:50;;;;;;;19.75;15.27;;;6.60;99.90;;;;;;6167975;23;20281;-85
2021/12/13 22:53:17;;;;;;;24.83;16.98;;;6.60;99.90;;;;;;6168723;23;20512;-85
2021/12/13 22:55:49;;;;;;;24.15;17.15;;;6.60;99.90;;;;;;6168294;23;20193;-85
2021/12/13 22:58:19;;;;;;;24.60;16.50;;;6.50;99.90;;;;;;6173083;23;20191;-84
2021/12/13 23:00:52;;;;;;;26.00;16.20;;;6.60;99.90;;;;;;6168356;23;20267;-84
2021/12/13 23:03:26;;;;;;;27.50;18.95;;;6.60;99.90;;;;;;6173122;23;20171;-86
2021/12/13 23:05:55;;;;;;;21.42;16.90;;;6.60;99.90;;;;;;6166829;23;20243;-84
2021/12/13 23:08:23;;;;;;;21.50;16.08;;;6.60;99.90;;;;;;6163925;23;20258;-85
2021/12/13 23:10:56;;;;;;;24.98;15.90;;;6.50;99.90;;;;;;6172337;23;20266;-84
2021/12/13 23:16:15;;;;;;;21.58;15.25;;;6.60;99.90;;;;;;6168132;23;20214;-85
2021/12/13 23:18:45;;;;;;;25.42;15.30;;;6.60;99.90;;;;;;6164888;23;20194;-85
2021/12/13 23:21:14;;;;;;;19.58;17.48;;;6.60;99.90;;;;;;6162917;23;20203;-84
2021/12/13 23:23:42;;;;;;;28.10;16.73;;;6.60;99.90;;;;;;6162572;23;20234;-85
2021/12/13 23:26:11;;;;;;;26.95;15.88;;;6.60;99.90;;;;;;6168296;23;20187;-84
2021/12/13 23:28:42;;;;;;;22.30;17.13;;;6.60;99.90;;;;;;6176108;23;20231;-84
2021/12/13 23:31:12;;;;;;;20.55;14.82;;;6.70;99.90;;;;;;6173833;23;20218;-84
2021/12/13 23:33:42;;;;;;;16.30;13.80;;;6.70;99.90;;;;;;6171637;23;20514;-84
2021/12/13 23:36:21;;;;;;;26.27;17.15;;;6.70;99.90;;;;;;6164822;23;20197;-84
2021/12/13 23:47:14;;;;;;;27.55;13.85;;;6.70;99.90;;;;;;6169127;23;20247;-85
2021/12/13 23:49:50;;;;;;;20.60;12.98;;;6.70;99.90;;;;;;6169167;23;20175;-84
2021/12/13 23:52:20;;;;;;;24.20;15.35;;;6.70;99.90;;;;;;6167330;23;20195;-84
2021/12/13 23:54:50;;;;;;;20.52;12.77;;;6.70;99.90;;;;;;6166669;23;20199;-84
2021/12/13 23:57:19;;;;;;;17.75;11.23;;;6.80;99.90;;;;;;6169493;23;20198;-84